Time;durP1;ratioP1;P1;durP2;ratioP2;P2;SDS_P1;SDS_P2;PMS_P1;PMS_P2;Temp;Humidity;BMP_temperature;BMP_pressure;BME280_temperature;BME280_humidity;BME280_pressure;Samples;Min_cycle;Max_cycle;Signal;HPM_P1;HPM_P2
2023/10/06 00:01:07;;;;;;;11.83;4.83;;;;;;;14.20;57.53;100324.98;1804043;79;20993;-74
2023/10/06 00:03:36;;;;;;;11.10;4.90;;;;;;;14.20;57.55;100331.34;1804009;79;20977;-75
2023/10/06 00:06:12;;;;;;;10.25;4.70;;;;;;;14.18;57.66;100342.27;1804269;79;21084;-75
2023/10/06 00:08:40;;;;;;;11.45;4.75;;;;;;;14.16;57.71;100341.66;1803277;79;21503;-74
2023/10/06 00:11:15;;;;;;;12.33;4.80;;;;;;;14.17;57.79;100333.70;1803745;79;21632;-75
2023/10/06 00:14:00;;;;;;;12.15;4.45;;;;;;;14.15;57.86;100329.78;1804174;79;21033;-74
2023/10/06 00:16:13;;;;;;;11.05;4.33;;;;;;;14.15;57.93;100328.41;1800944;79;21049;-75
2023/10/06 00:18:42;;;;;;;10.53;4.60;;;;;;;14.16;57.97;100333.39;1803897;79;21044;-74
2023/10/06 00:21:15;;;;;;;10.20;4.70;;;;;;;14.15;58.00;100339.44;1804072;79;21010;-74
2023/10/06 00:23:44;;;;;;;10.95;4.35;;;;;;;14.16;58.07;100327.34;1804080;79;21010;-74
2023/10/06 00:26:16;;;;;;;10.65;4.62;;;;;;;14.14;58.13;100334.98;1804146;79;21048;-75
2023/10/06 00:28:46;;;;;;;9.05;4.60;;;;;;;14.12;58.24;100326.10;1803949;79;20989;-74
2023/10/06 00:31:15;;;;;;;12.98;4.58;;;;;;;14.10;58.27;100335.13;1804149;79;21049;-75
2023/10/06 00:33:45;;;;;;;12.07;4.53;;;;;;;14.10;58.34;100326.86;1804121;79;21067;-73
2023/10/06 00:36:17;;;;;;;13.05;4.83;;;;;;;14.11;58.36;100324.41;1804225;79;21061;-73
2023/10/06 00:38:50;;;;;;;10.75;4.50;;;;;;;14.11;58.40;100334.05;1803934;79;21013;-75
2023/10/06 00:41:23;;;;;;;8.18;4.00;;;;;;;14.11;58.46;100331.30;1803921;79;21014;-74
2023/10/06 00:43:52;;;;;;;12.03;4.70;;;;;;;14.11;58.56;100325.79;1803974;79;21052;-73
2023/10/06 00:46:20;;;;;;;10.23;4.00;;;;;;;14.10;58.58;100325.48;1804037;79;21009;-75
2023/10/06 00:49:04;;;;;;;8.35;4.17;;;;;;;14.11;58.60;100324.41;1803957;79;21010;-74
2023/10/06 00:51:21;;;;;;;10.50;4.25;;;;;;;14.10;58.66;100324.10;1798987;79;21485;-75
2023/10/06 00:53:56;;;;;;;11.08;4.75;;;;;;;14.13;58.66;100330.55;1803989;79;21484;-74
2023/10/06 00:56:24;;;;;;;10.45;4.10;;;;;;;14.14;58.69;100332.77;1804049;79;21013;-76
2023/10/06 00:58:54;;;;;;;12.37;4.67;;;;;;;14.12;58.73;100331.61;1803955;79;21240;-73
2023/10/06 01:01:22;;;;;;;10.13;4.67;;;;;;;14.12;58.81;100330.77;1803898;79;21022;-74
2023/10/06 01:04:01;;;;;;;12.93;4.53;;;;;;;14.11;58.87;100336.81;1803932;79;21021;-76
2023/10/06 01:06:23;;;;;;;11.43;4.47;;;;;;;14.10;58.91;100325.48;1800863;79;21021;-74
2023/10/06 01:09:05;;;;;;;8.78;4.42;;;;;;;14.11;58.99;100327.16;1804080;79;21315;-73
2023/10/06 01:11:27;;;;;;;10.15;4.20;;;;;;;14.10;59.03;100321.34;1802822;79;21457;-74
2023/10/06 01:13:56;;;;;;;9.88;3.90;;;;;;;14.11;59.06;100331.30;1804182;79;21445;-72
2023/10/06 01:16:31;;;;;;;8.83;3.98;;;;;;;14.11;59.10;100335.44;1803849;79;21041;-75
2023/10/06 01:19:14;;;;;;;10.58;4.62;;;;;;;14.09;59.21;100334.81;1804094;79;21001;-73
2023/10/06 01:21:52;;;;;;;10.95;4.22;;;;;;;14.06;59.29;100326.99;1804013;79;21029;-74
2023/10/06 01:24:24;;;;;;;9.53;3.77;;;;;;;14.05;59.39;100332.19;1802902;79;21057;-73
2023/10/06 01:26:49;;;;;;;8.58;4.28;;;;;;;14.03;59.46;100321.08;1802974;79;21064;-74
2023/10/06 01:29:16;;;;;;;11.12;4.20;;;;;;;14.02;59.53;100322.14;1804031;79;21009;-74
2023/10/06 01:31:46;;;;;;;12.00;4.00;;;;;;;14.02;59.61;100322.14;1803988;79;21041;-75
2023/10/06 01:34:15;;;;;;;8.78;3.95;;;;;;;13.99;59.66;100317.92;1803954;79;21020;-75
2023/10/06 01:36:43;;;;;;;9.90;4.10;;;;;;;14.00;59.76;100327.03;1804121;79;21079;-74
2023/10/06 01:39:18;;;;;;;8.63;3.95;;;;;;;13.99;59.87;100328.10;1803892;79;21037;-75
2023/10/06 01:41:49;;;;;;;8.30;3.85;;;;;;;13.95;59.92;100327.70;1804044;79;21017;-74
2023/10/06 01:44:17;;;;;;;12.75;3.92;;;;;;;13.93;60.02;100324.33;1804066;79;21041;-74
2023/10/06 01:46:55;;;;;;;9.10;4.30;;;;;;;13.91;60.13;100332.81;1803993;79;20997;-75
2023/10/06 01:49:24;;;;;;;9.28;3.90;;;;;;;13.89;60.28;100326.67;1803941;79;21045;-76
2023/10/06 01:51:53;;;;;;;8.33;4.10;;;;;;;13.86;60.37;100320.77;1804015;79;21040;-74
2023/10/06 01:54:27;;;;;;;8.45;3.58;;;;;;;13.83;60.47;100328.09;1804111;79;21017;-75
2023/10/06 01:56:54;;;;;;;9.65;3.98;;;;;;;13.80;60.60;100327.16;1803903;79;21010;-74
2023/10/06 01:59:23;;;;;;;8.88;3.55;;;;;;;13.78;60.74;100329.29;1804054;79;21025;-74
2023/10/06 02:01:51;;;;;;;7.62;3.47;;;;;;;13.75;60.84;100336.08;1804112;79;21242;-75
2023/10/06 02:04:24;;;;;;;7.05;3.37;;;;;;;13.73;60.94;100331.33;1803821;79;20997;-75
2023/10/06 02:06:54;;;;;;;9.05;3.70;;;;;;;13.72;61.09;100340.66;1803948;79;21049;-76
2023/10/06 02:09:25;;;;;;;9.65;4.05;;;;;;;13.70;61.22;100346.06;1803963;79;21046;-74
2023/10/06 02:11:55;;;;;;;9.78;3.77;;;;;;;13.67;61.38;100343.22;1803897;79;20985;-74
2023/10/06 02:14:24;;;;;;;7.50;4.08;;;;;;;13.64;61.48;100340.34;1804153;79;21025;-75
2023/10/06 02:16:55;;;;;;;9.98;3.65;;;;;;;13.60;61.59;100343.22;1803860;79;21005;-76
2023/10/06 02:19:28;;;;;;;8.63;3.52;;;;;;;13.59;61.71;100353.92;1803991;79;21501;-75
2023/10/06 02:21:54;;;;;;;8.70;3.10;;;;;;;13.59;61.76;100362.71;1803982;79;21045;-75
2023/10/06 02:24:23;;;;;;;9.45;3.52;;;;;;;13.59;61.90;100364.94;1803982;79;21005;-76
2023/10/06 02:27:01;;;;;;;8.78;3.55;;;;;;;13.57;61.96;100360.17;1803900;79;21037;-75
2023/10/06 02:29:22;;;;;;;9.38;4.00;;;;;;;13.55;62.07;100360.08;1800093;79;21041;-75
2023/10/06 02:31:52;;;;;;;9.68;3.62;;;;;;;13.54;62.17;100367.49;1804033;79;21017;-74
2023/10/06 02:34:29;;;;;;;8.88;3.58;;;;;;;13.55;62.22;100374.69;1804162;79;21092;-74
2023/10/06 02:37:00;;;;;;;7.70;3.58;;;;;;;13.53;62.32;100369.93;1804082;79;21044;-75
2023/10/06 02:39:33;;;;;;;8.20;3.22;;;;;;;13.50;62.50;100381.38;1804060;79;21060;-73
2023/10/06 02:42:07;;;;;;;10.15;3.52;;;;;;;13.48;62.66;100373.88;1803812;79;21096;-76
2023/10/06 02:44:37;;;;;;;7.45;3.98;;;;;;;13.46;62.82;100370.49;1803506;79;21519;-76
2023/10/06 02:47:04;;;;;;;6.03;3.25;;;;;;;13.46;62.88;100372.40;1803490;79;21066;-75
2023/10/06 02:49:35;;;;;;;7.80;3.47;;;;;;;13.45;62.99;100366.05;1806533;79;21040;-74
2023/10/06 02:52:46;;;;;;;7.83;3.15;;;;;;;13.42;63.05;100366.48;1812991;79;21020;-74
2023/10/06 02:54:44;;;;;;;6.53;3.00;;;;;;;13.42;63.08;100369.23;1789600;79;21076;-75
2023/10/06 02:57:10;;;;;;;8.03;3.25;;;;;;;13.41;63.14;100362.05;1812184;78;21441;-75
2023/10/06 02:59:38;;;;;;;7.50;3.42;;;;;;;13.41;63.25;100364.79;1812766;78;21033;-74
2023/10/06 03:02:15;;;;;;;7.37;3.40;;;;;;;13.43;63.38;100356.31;1812833;78;21056;-74
2023/10/06 03:04:39;;;;;;;7.67;3.50;;;;;;;13.40;63.43;100363.10;1811797;79;21460;-78
2023/10/06 03:07:14;;;;;;;7.37;3.50;;;;;;;13.38;63.55;100363.85;1812853;79;21068;-73
2023/10/06 03:09:44;;;;;;;11.43;3.42;;;;;;;13.33;63.63;100357.62;1812291;79;21591;-74
2023/10/06 03:12:31;;;;;;;8.35;3.22;;;;;;;13.30;63.78;100358.05;1812669;78;21006;-74
2023/10/06 03:14:43;;;;;;;8.60;3.45;;;;;;;13.26;63.90;100355.95;1804629;79;21050;-75
2023/10/06 03:17:13;;;;;;;6.85;3.42;;;;;;;13.20;64.06;100355.44;1812866;79;21025;-74
2023/10/06 03:19:44;;;;;;;6.75;3.15;;;;;;;13.16;64.10;100364.62;1812794;79;21099;-75
2023/10/06 03:22:13;;;;;;;6.87;3.02;;;;;;;13.17;64.22;100360.00;1812685;78;21413;-74
2023/10/06 03:24:53;;;;;;;8.53;3.37;;;;;;;13.16;64.30;100372.03;1812982;79;21052;-74
2023/10/06 03:27:15;;;;;;;9.60;3.35;;;;;;;13.13;64.35;100366.96;1811328;79;21495;-74
2023/10/06 03:30:08;;;;;;;11.55;2.85;;;;;;;13.12;64.52;100371.63;1812706;78;21040;-75
2023/10/06 03:32:39;;;;;;;8.35;3.55;;;;;;;13.09;64.62;100371.20;1810962;78;21438;-76
2023/10/06 03:35:17;;;;;;;7.65;3.10;;;;;;;13.06;64.70;100365.60;1812912;78;21480;-76
2023/10/06 03:37:51;;;;;;;7.83;3.40;;;;;;;13.04;64.85;100364.12;1811574;78;21027;-75
2023/10/06 03:40:11;;;;;;;10.25;2.85;;;;;;;13.02;64.91;100362.97;1810686;79;21025;-76
2023/10/06 03:42:43;;;;;;;6.83;2.95;;;;;;;13.00;65.04;100371.43;1812909;78;21033;-75
2023/10/06 03:45:27;;;;;;;5.30;2.50;;;;;;;12.99;65.09;100368.86;1812843;79;21013;-73
2023/10/06 03:48:12;;;;;;;8.70;3.00;;;;;;;12.97;65.18;100370.45;1812749;79;21104;-75
2023/10/06 03:50:44;;;;;;;5.75;2.90;;;;;;;12.96;65.29;100363.79;1812979;78;21088;-75
2023/10/06 03:53:14;;;;;;;6.40;2.90;;;;;;;12.93;65.33;100373.31;1812744;78;21076;-73
2023/10/06 03:55:46;;;;;;;7.70;3.08;;;;;;;12.91;65.39;100364.97;1812879;79;21057;-74
2023/10/06 03:58:18;;;;;;;8.88;2.83;;;;;;;12.88;65.55;100376.39;1812841;78;21013;-73
2023/10/06 04:00:49;;;;;;;5.80;2.47;;;;;;;12.86;65.63;100373.01;1812715;78;21034;-76
2023/10/06 04:03:19;;;;;;;8.50;2.92;;;;;;;12.84;65.77;100373.75;1788783;79;21053;-74
2023/10/06 04:05:49;;;;;;;9.28;3.00;;;;;;;12.81;65.87;100369.52;1812942;79;21001;-75
2023/10/06 04:08:23;;;;;;;7.60;2.65;;;;;;;12.79;65.98;100373.02;1812763;78;21025;-74
2023/10/06 04:10:54;;;;;;;7.55;2.45;;;;;;;12.79;66.07;100368.89;1812711;78;21476;-74
2023/10/06 04:13:23;;;;;;;10.15;2.98;;;;;;;12.79;66.24;100368.89;1812964;79;21072;-74
2023/10/06 04:15:57;;;;;;;7.50;3.00;;;;;;;12.78;66.24;100371.33;1812844;79;21076;-75
2023/10/06 04:18:25;;;;;;;6.50;3.10;;;;;;;12.79;66.22;100373.55;1812698;79;21475;-75
2023/10/06 04:20:54;;;;;;;8.65;2.80;;;;;;;12.79;66.27;100378.52;1812756;79;21009;-75
2023/10/06 04:23:23;;;;;;;9.30;2.95;;;;;;;12.78;66.20;100380.95;1812625;79;21049;-74
2023/10/06 04:25:56;;;;;;;5.33;2.50;;;;;;;12.78;66.21;100375.45;1812720;79;21167;-75
2023/10/06 04:28:31;;;;;;;14.47;3.40;;;;;;;12.79;66.16;100377.14;1812747;78;21480;-75
2023/10/06 04:31:00;;;;;;;9.58;3.33;;;;;;;12.78;66.22;100385.60;1812798;78;21064;-75
2023/10/06 04:33:29;;;;;;;16.93;7.33;;;;;;;12.78;66.25;100385.60;1812676;79;21026;-74
2023/10/06 04:36:20;;;;;;;10.98;3.47;;;;;;;12.78;66.22;100396.59;1812920;79;21064;-75
2023/10/06 04:38:32;;;;;;;6.37;2.80;;;;;;;12.78;66.17;100385.60;1804722;78;21064;-74
2023/10/06 04:41:02;;;;;;;15.58;2.70;;;;;;;12.75;66.10;100388.77;1813072;79;21060;-74
2023/10/06 04:43:31;;;;;;;6.12;2.72;;;;;;;12.70;66.17;100395.76;1812750;79;20985;-74
2023/10/06 04:46:00;;;;;;;5.08;2.52;;;;;;;12.68;66.23;100405.27;1812877;78;21017;-74
2023/10/06 04:48:29;;;;;;;5.47;2.25;;;;;;;12.65;66.28;100399.67;1812829;79;21048;-74
2023/10/06 04:50:58;;;;;;;7.67;2.55;;;;;;;12.65;66.36;100404.32;1807080;79;21061;-76
2023/10/06 04:53:27;;;;;;;10.50;3.10;;;;;;;12.65;66.43;100411.19;1803971;79;21019;-74
2023/10/06 04:55:57;;;;;;;7.67;3.00;;;;;;;12.65;66.47;100409.81;1804020;79;21128;-75
2023/10/06 04:58:26;;;;;;;4.97;2.30;;;;;;;12.67;66.45;100407.70;1803973;79;20981;-74
2023/10/06 05:00:59;;;;;;;7.90;2.70;;;;;;;12.69;66.48;100405.06;1803903;79;21014;-74
2023/10/06 05:03:26;;;;;;;6.72;2.95;;;;;;;12.69;66.43;100416.06;1803963;79;21025;-72
2023/10/06 05:05:58;;;;;;;6.92;2.52;;;;;;;12.70;66.46;100415.53;1804213;79;20993;-74
2023/10/06 05:08:27;;;;;;;8.13;2.90;;;;;;;12.75;66.44;100428.11;1804004;79;21044;-76
2023/10/06 05:10:55;;;;;;;4.62;2.40;;;;;;;12.77;66.35;100424.63;1804038;79;21002;-74
2023/10/06 05:13:26;;;;;;;7.90;2.62;;;;;;;12.77;66.29;100428.75;1804036;79;21528;-75
2023/10/06 05:15:55;;;;;;;10.78;3.83;;;;;;;12.75;66.27;100426.73;1803857;79;21018;-75
2023/10/06 05:18:24;;;;;;;8.85;2.85;;;;;;;12.74;66.38;100427.80;1803871;79;21049;-76
2023/10/06 05:20:53;;;;;;;8.68;2.37;;;;;;;12.75;66.32;100434.14;1804287;79;21032;-73
2023/10/06 05:23:21;;;;;;;5.75;2.20;;;;;;;12.74;66.32;100438.80;1803760;79;21005;-73
2023/10/06 05:25:50;;;;;;;5.12;2.25;;;;;;;12.71;66.26;100441.97;1803984;79;21021;-74
2023/10/06 05:28:20;;;;;;;10.63;2.47;;;;;;;12.69;66.21;100435.83;1803939;79;21477;-73
2023/10/06 05:30:50;;;;;;;6.55;2.37;;;;;;;12.65;66.20;100434.56;1803920;79;21068;-74
2023/10/06 05:33:19;;;;;;;5.97;2.17;;;;;;;12.63;66.28;100444.39;1803734;79;21037;-76
2023/10/06 05:35:48;;;;;;;7.50;2.33;;;;;;;12.65;66.27;100438.69;1804116;79;20997;-75
2023/10/06 05:38:17;;;;;;;7.97;2.95;;;;;;;12.67;66.21;100436.57;1804074;79;21021;-75
2023/10/06 05:40:49;;;;;;;10.20;2.35;;;;;;;12.69;66.21;100437.20;1803883;79;21009;-75
2023/10/06 05:43:18;;;;;;;7.15;2.45;;;;;;;12.72;65.84;100444.19;1804064;79;21040;-74
2023/10/06 05:45:57;;;;;;;7.53;2.37;;;;;;;12.73;65.76;100456.34;1804126;79;20989;-73
2023/10/06 05:48:27;;;;;;;6.55;2.20;;;;;;;12.75;65.70;100452.02;1803170;79;21434;-75
2023/10/06 05:51:01;;;;;;;4.90;2.00;;;;;;;12.76;65.57;100457.30;1802526;79;21033;-74
2023/10/06 05:53:24;;;;;;;7.45;2.05;;;;;;;12.79;65.32;100459.62;1799845;80;21049;-75
2023/10/06 05:55:54;;;;;;;5.45;2.22;;;;;;;12.79;65.02;100453.28;1801245;80;21437;-74
2023/10/06 05:58:23;;;;;;;6.45;1.90;;;;;;;12.80;64.99;100466.81;1800882;79;21064;-74
2023/10/06 06:01:05;;;;;;;7.83;1.95;;;;;;;12.83;64.88;100469.15;1801051;80;21005;-78
2023/10/06 06:03:30;;;;;;;9.03;1.70;;;;;;;12.87;64.48;100475.92;1800060;80;21437;-74
2023/10/06 06:06:08;;;;;;;10.32;2.00;;;;;;;12.93;63.95;100468.20;1800791;79;21486;-76
2023/10/06 06:08:39;;;;;;;6.70;1.92;;;;;;;12.98;63.40;100478.03;1801001;80;21457;-75
2023/10/06 06:11:07;;;;;;;9.33;2.00;;;;;;;13.03;62.74;100487.59;1800787;79;21057;-77
2023/10/06 06:13:38;;;;;;;10.65;1.80;;;;;;;13.06;62.47;100483.88;1801040;79;21045;-76
2023/10/06 06:16:07;;;;;;;6.55;1.85;;;;;;;13.10;62.05;100489.28;1800835;79;21060;-74
2023/10/06 06:18:37;;;;;;;4.47;1.57;;;;;;;13.10;62.05;100489.28;1801130;79;21068;-76
2023/10/06 06:21:07;;;;;;;6.62;1.90;;;;;;;13.13;61.70;100490.77;1801095;80;21061;-76
2023/10/06 06:23:36;;;;;;;10.82;1.80;;;;;;;13.12;61.41;100491.81;1800879;79;21425;-75
2023/10/06 06:26:05;;;;;;;9.63;2.20;;;;;;;13.10;60.94;100498.91;1801244;80;21013;-75
2023/10/06 06:28:36;;;;;;;11.57;1.90;;;;;;;13.06;60.76;100511.39;1800891;80;21037;-74
2023/10/06 06:31:04;;;;;;;6.10;1.50;;;;;;;13.05;60.60;100504.73;1800918;79;21040;-75
2023/10/06 06:33:35;;;;;;;10.93;1.92;;;;;;;13.03;60.74;100517.31;1801152;80;21013;-75
2023/10/06 06:36:04;;;;;;;8.03;1.70;;;;;;;13.00;60.27;100510.33;1800870;79;21076;-74
2023/10/06 06:38:39;;;;;;;8.28;1.60;;;;;;;12.98;60.43;100512.42;1801087;80;21686;-75
2023/10/06 06:41:05;;;;;;;6.87;1.50;;;;;;;13.03;60.35;100511.81;1800658;79;21037;-73
2023/10/06 06:43:34;;;;;;;10.43;1.92;;;;;;;13.09;60.29;100521.13;1800721;79;21461;-75
2023/10/06 06:46:03;;;;;;;8.43;1.35;;;;;;;13.13;59.77;100530.66;1800975;79;21041;-77
2023/10/06 06:48:32;;;;;;;6.60;1.50;;;;;;;13.13;58.89;100523.77;1801078;79;21023;-76
2023/10/06 06:51:00;;;;;;;21.55;2.35;;;;;;;13.13;58.50;100515.52;1800799;79;21540;-76
2023/10/06 06:53:29;;;;;;;9.98;1.60;;;;;;;13.13;57.92;100529.28;1800839;80;21010;-75
2023/10/06 06:55:58;;;;;;;3.67;1.20;;;;;;;13.13;57.48;100534.25;1800714;80;21449;-74
2023/10/06 06:58:27;;;;;;;4.17;1.20;;;;;;;13.13;57.56;100523.77;1800943;80;21009;-74
2023/10/06 07:00:56;;;;;;;13.22;1.55;;;;;;;13.15;57.27;100532.66;1800893;80;21017;-75
2023/10/06 07:03:26;;;;;;;3.02;1.35;;;;;;;13.14;56.76;100518.59;1800785;79;20994;-74
2023/10/06 07:05:56;;;;;;;4.62;1.30;;;;;;;13.17;56.83;100531.95;1801013;79;20987;-74
2023/10/06 07:08:25;;;;;;;6.05;1.40;;;;;;;13.24;56.96;100524.02;1800843;79;20986;-76
2023/10/06 07:10:54;;;;;;;5.25;1.10;;;;;;;13.32;56.76;100532.59;1800872;80;21017;-74
2023/10/06 07:13:22;;;;;;;4.53;0.98;;;;;;;13.39;56.48;100530.67;1800943;79;21025;-75
2023/10/06 07:15:53;;;;;;;4.25;1.40;;;;;;;13.43;56.50;100548.98;1800807;79;21453;-76
2023/10/06 07:18:23;;;;;;;3.10;1.00;;;;;;;13.47;56.24;100545.59;1801290;79;21430;-74
2023/10/06 07:20:52;;;;;;;9.40;1.20;;;;;;;13.47;55.97;100541.47;1800765;79;21017;-73
2023/10/06 07:23:22;;;;;;;4.78;1.42;;;;;;;13.49;56.01;100531.09;1800881;80;21051;-75
2023/10/06 07:25:51;;;;;;;2.92;1.35;;;;;;;13.52;55.79;100549.93;1800877;79;21021;-76
2023/10/06 07:28:20;;;;;;;4.37;1.50;;;;;;;13.51;55.54;100542.73;1800884;79;21048;-74
2023/10/06 07:30:49;;;;;;;12.85;1.45;;;;;;;13.54;55.37;100546.44;1801112;79;21014;-75
2023/10/06 07:33:17;;;;;;;5.67;1.60;;;;;;;13.54;55.12;100562.95;1800949;79;21029;-74
2023/10/06 07:35:51;;;;;;;6.80;1.30;;;;;;;13.54;55.36;100555.22;1801152;80;21001;-75
2023/10/06 07:38:18;;;;;;;9.43;1.45;;;;;;;13.56;55.00;100572.37;1800661;79;21010;-76
2023/10/06 07:40:47;;;;;;;9.43;1.40;;;;;;;13.57;54.02;100559.77;1800928;79;21017;-75
2023/10/06 07:43:17;;;;;;;6.97;1.57;;;;;;;13.53;53.35;100557.66;1800823;79;21582;-74
2023/10/06 07:45:48;;;;;;;5.15;1.30;;;;;;;13.47;53.46;100569.52;1800783;79;21048;-75
2023/10/06 07:48:20;;;;;;;8.08;1.00;;;;;;;13.48;53.45;100576.19;1801204;79;21084;-74
2023/10/06 07:50:49;;;;;;;9.60;1.25;;;;;;;13.54;52.73;100573.97;1772735;80;21119;-74
2023/10/06 07:53:18;;;;;;;4.25;1.00;;;;;;;13.58;52.94;100575.23;1800243;79;21072;-76
2023/10/06 07:56:07;;;;;;;3.85;0.80;;;;;;;13.67;52.83;100566.25;1802847;79;21041;-76
2023/10/06 07:58:46;;;;;;;5.85;1.10;;;;;;;13.91;52.25;100568.86;1745742;82;21314;-77
2023/10/06 08:01:18;;;;;;;5.40;1.10;;;;;;;14.35;51.26;100565.88;1811586;78;21057;-75
2023/10/06 08:03:47;;;;;;;5.05;1.12;;;;;;;14.75;50.56;100581.20;1792946;79;21089;-77
2023/10/06 08:06:15;;;;;;;4.45;1.05;;;;;;;15.00;49.54;100588.19;1747366;82;21078;-76
2023/10/06 08:08:44;;;;;;;7.08;1.57;;;;;;;15.31;49.17;100581.81;1784466;80;21038;-75
2023/10/06 08:11:13;;;;;;;3.72;1.20;;;;;;;15.70;48.34;100568.25;1746158;82;21055;-76
2023/10/06 08:13:42;;;;;;;4.35;1.32;;;;;;;16.08;47.96;100570.83;1758834;81;21035;-76
2023/10/06 08:16:12;;;;;;;7.47;1.55;;;;;;;16.40;46.37;100574.30;1741053;82;21055;-76
2023/10/06 08:18:41;;;;;;;6.03;1.50;;;;;;;16.47;46.93;100574.22;1810015;79;21016;-68
2023/10/06 08:21:10;;;;;;;2.33;1.17;;;;;;;16.51;48.06;100570.45;1741327;82;21032;-72
2023/10/06 08:23:39;;;;;;;6.97;1.40;;;;;;;16.64;47.75;100583.58;1809837;79;21476;-72
2023/10/06 08:26:08;;;;;;;4.22;1.00;;;;;;;16.74;45.63;100576.97;1810278;79;21016;-74
2023/10/06 08:28:37;;;;;;;4.35;1.40;;;;;;;16.79;45.09;100579.88;1740339;82;21120;-72
2023/10/06 08:31:14;;;;;;;6.83;1.30;;;;;;;16.71;44.95;100579.36;1811372;78;20980;-74
2023/10/06 08:33:45;;;;;;;5.85;1.12;;;;;;;16.54;45.25;100569.98;1784500;79;21302;-74
2023/10/06 08:36:13;;;;;;;3.40;0.98;;;;;;;16.45;45.80;100579.98;1811787;79;21058;-75
2023/10/06 08:38:44;;;;;;;5.03;1.32;;;;;;;16.35;45.80;100578.84;1811651;79;21049;-71
2023/10/06 08:41:13;;;;;;;5.20;1.20;;;;;;;16.11;45.95;100579.20;1811549;79;21462;-74
2023/10/06 08:43:41;;;;;;;6.58;1.10;;;;;;;15.79;46.96;100578.47;1811506;79;20986;-75
2023/10/06 08:46:10;;;;;;;5.62;1.32;;;;;;;15.65;47.22;100590.19;1811673;78;21437;-75
2023/10/06 08:48:40;;;;;;;2.42;0.82;;;;;;;15.63;46.81;100585.96;1733647;78;21065;-73
2023/10/06 08:51:11;;;;;;;2.10;1.05;;;;;;;15.59;46.78;100591.06;1811984;78;21013;-73
2023/10/06 08:53:40;;;;;;;4.08;0.82;;;;;;;15.54;46.07;100598.61;1814777;78;21010;-73
2023/10/06 08:56:09;;;;;;;4.67;1.10;;;;;;;15.48;46.17;100596.75;1815161;78;21022;-73
2023/10/06 08:58:41;;;;;;;3.02;1.60;;;;;;;15.45;46.48;100589.45;1814999;78;21029;-75
2023/10/06 09:01:11;;;;;;;5.60;1.50;;;;;;;15.49;48.97;100596.21;1814712;78;21494;-76
2023/10/06 09:03:40;;;;;;;4.92;1.00;;;;;;;15.64;47.71;100593.17;1815883;79;21039;-78
2023/10/06 09:06:11;;;;;;;4.15;0.80;;;;;;;15.74;47.55;100596.27;1816122;79;21030;-73
2023/10/06 09:08:41;;;;;;;9.93;0.90;;;;;;;15.78;46.04;100602.49;1746811;82;21087;-73
2023/10/06 09:11:10;;;;;;;6.10;1.05;;;;;;;15.71;45.28;100597.56;1758702;81;21000;-73
2023/10/06 09:13:39;;;;;;;3.47;1.00;;;;;;;15.66;45.75;100593.26;1746858;82;20999;-73
2023/10/06 09:16:08;;;;;;;7.35;1.02;;;;;;;15.63;45.74;100586.80;1758678;81;21023;-72
2023/10/06 09:18:41;;;;;;;4.72;1.30;;;;;;;15.65;46.51;100606.76;1746838;82;21067;-75
2023/10/06 09:21:22;;;;;;;4.53;1.40;;;;;;;15.71;46.01;100589.81;1758445;81;21015;-73
2023/10/06 09:23:49;;;;;;;3.92;0.80;;;;;;;15.74;46.08;100593.51;1758091;81;21063;-73
2023/10/06 09:26:29;;;;;;;9.58;1.50;;;;;;;15.74;45.63;100608.70;1746214;82;21027;-73
2023/10/06 09:29:01;;;;;;;4.03;0.90;;;;;;;15.67;45.03;100603.23;1757160;81;21998;-71
2023/10/06 09:31:47;;;;;;;6.10;1.00;;;;;;;15.63;44.64;100602.53;1746838;82;21079;-74
2023/10/06 09:34:24;;;;;;;5.03;1.00;;;;;;;15.51;44.90;100608.73;1758417;81;21474;-72
2023/10/06 09:36:53;;;;;;;4.72;0.90;;;;;;;15.50;44.80;100617.23;1746773;82;21218;-72
2023/10/06 09:39:32;;;;;;;4.87;1.00;;;;;;;15.47;43.66;100614.39;1758535;81;21027;-72
2023/10/06 09:42:05;;;;;;;12.50;1.30;;;;;;;15.40;43.71;100607.23;1746955;82;21011;-72
2023/10/06 09:44:35;;;;;;;3.05;0.70;;;;;;;15.35;42.96;100614.80;1758538;81;21066;-74
2023/10/06 09:47:04;;;;;;;4.87;0.75;;;;;;;15.29;43.38;100623.13;1747008;82;21539;-74
2023/10/06 09:49:33;;;;;;;6.47;0.85;;;;;;;15.19;44.07;100625.00;1758641;81;21122;-73
2023/10/06 09:52:02;;;;;;;2.42;1.17;;;;;;;15.13;44.65;100622.60;1744524;82;21098;-72
2023/10/06 09:54:31;;;;;;;4.22;1.17;;;;;;;15.13;44.79;100618.46;1758706;81;20999;-72
2023/10/06 09:57:00;;;;;;;6.58;1.85;;;;;;;15.15;44.53;100635.64;1741287;82;21012;-72
2023/10/06 09:59:31;;;;;;;4.70;0.90;;;;;;;15.16;43.67;100634.58;1758530;81;21094;-73
2023/10/06 10:02:03;;;;;;;3.90;1.05;;;;;;;15.22;43.61;100633.69;1688593;82;21490;-73
2023/10/06 10:04:33;;;;;;;7.08;1.00;;;;;;;15.28;43.21;100633.86;1811499;79;21487;-74
2023/10/06 10:07:02;;;;;;;10.90;1.22;;;;;;;15.31;42.68;100634.27;1811524;78;21085;-72
2023/10/06 10:09:31;;;;;;;3.42;1.00;;;;;;;15.30;42.60;100631.73;1811627;78;21069;-73
2023/10/06 10:12:22;;;;;;;5.85;0.78;;;;;;;15.28;43.24;100638.00;1811623;78;20990;-72
2023/10/06 10:15:21;;;;;;;8.50;1.17;;;;;;;15.30;43.23;100646.91;1811450;78;21034;-73
2023/10/06 10:18:13;;;;;;;3.02;1.10;;;;;;;15.28;42.34;100639.38;1811803;78;20979;-74
2023/10/06 10:20:46;;;;;;;2.52;1.20;;;;;;;15.29;42.38;100647.98;1798378;78;21046;-71
2023/10/06 10:23:16;;;;;;;9.15;1.20;;;;;;;15.33;42.14;100643.70;1811490;79;21085;-74
2023/10/06 10:25:47;;;;;;;1.60;0.55;;;;;;;15.35;42.20;100647.94;1782687;79;21470;-72
2023/10/06 10:28:19;;;;;;;4.25;0.80;;;;;;;15.36;42.42;100648.78;1811458;79;21034;-72
2023/10/06 10:31:00;;;;;;;6.25;0.90;;;;;;;15.39;42.00;100649.18;1811611;78;21446;-71
2023/10/06 10:33:34;;;;;;;2.25;0.82;;;;;;;15.42;41.52;100649.27;1811571;78;21002;-73
2023/10/06 10:36:19;;;;;;;2.83;0.90;;;;;;;15.42;41.07;100657.02;1758809;79;21061;-74
2023/10/06 10:39:08;;;;;;;8.45;2.95;;;;;;;15.40;41.18;100639.83;1811552;79;21033;-72
2023/10/06 10:41:40;;;;;;;5.37;1.90;;;;;;;15.42;41.65;100634.08;1811683;79;21081;-72
2023/10/06 10:44:11;;;;;;;6.40;1.30;;;;;;;15.43;41.41;100638.00;1811553;79;20998;-71
2023/10/06 10:46:45;;;;;;;5.83;0.90;;;;;;;15.46;41.21;100634.79;1808928;79;21100;-72
2023/10/06 10:49:19;;;;;;;2.70;0.90;;;;;;;15.46;41.12;100632.03;1811470;79;21511;-72
2023/10/06 10:51:55;;;;;;;6.55;1.40;;;;;;;15.45;41.47;100634.48;1812034;79;21045;-72
2023/10/06 10:54:32;;;;;;;6.37;0.90;;;;;;;15.48;41.42;100618.84;1814957;79;21018;-70
2023/10/06 10:57:13;;;;;;;5.37;1.37;;;;;;;15.51;40.96;100623.91;1814761;79;21507;-72
2023/10/06 11:02:49;;;;;;;3.95;1.00;;;;;;;15.59;40.75;100621.98;1814936;79;21500;-73
2023/10/06 11:05:22;;;;;;;5.53;0.90;;;;;;;15.60;40.69;100629.19;1744743;82;21032;-73
2023/10/06 11:08:02;;;;;;;3.50;0.93;;;;;;;15.60;40.99;100627.27;1758840;81;21071;-73
2023/10/06 11:10:33;;;;;;;5.85;1.20;;;;;;;15.67;40.54;100629.48;1758789;81;21102;-71
2023/10/06 11:13:21;;;;;;;4.17;1.50;;;;;;;15.71;39.66;100632.64;1746923;82;21047;-72
2023/10/06 11:15:49;;;;;;;;;;;;;;;15.66;39.71;100629.70;1761420;81;21047;-72
2023/10/06 11:18:20;;;;;;;3.95;1.27;;;;;;;15.64;40.06;100641.52;1758833;81;20161;-74
2023/10/06 11:20:49;;;;;;;7.28;0.90;;;;;;;15.66;39.35;100640.75;1746831;82;21062;-70
2023/10/06 11:23:18;;;;;;;4.72;1.17;;;;;;;15.64;38.47;100647.04;1758637;81;21055;-72
2023/10/06 11:25:48;;;;;;;8.65;2.80;;;;;;;15.58;38.36;100633.56;1746892;82;21526;-72
2023/10/06 11:28:19;;;;;;;7.35;1.17;;;;;;;15.56;40.18;100639.81;1758321;81;21051;-72
2023/10/06 11:30:49;;;;;;;5.90;0.98;;;;;;;15.61;39.27;100631.77;1746803;82;21039;-73
2023/10/06 11:33:20;;;;;;;8.28;1.60;;;;;;;15.64;39.20;100650.65;1758645;81;21094;-72
2023/10/06 11:35:48;;;;;;;3.12;0.90;;;;;;;15.65;39.18;100637.69;1720530;82;21095;-72
2023/10/06 11:38:17;;;;;;;5.55;1.10;;;;;;;15.63;39.06;100621.87;1728963;81;21011;-73
2023/10/06 11:40:46;;;;;;;3.83;1.20;;;;;;;15.58;39.00;100638.23;1747042;82;21063;-73
2023/10/06 11:43:17;;;;;;;5.58;1.52;;;;;;;15.55;39.10;100640.34;1758201;81;21110;-74
2023/10/06 11:45:46;;;;;;;4.83;1.30;;;;;;;15.54;39.09;100633.13;1746971;82;21143;-73